Time;durP1;ratioP1;P1;durP2;ratioP2;P2;SDS_P1;SDS_P2;PMS_P1;PMS_P2;Temp;Humidity;BMP_temperature;BMP_pressure;BME280_temperature;BME280_humidity;BME280_pressure;Samples;Min_cycle;Max_cycle;Signal;HPM_P1;HPM_P2
2020/12/31 00:00:15;;;;;;;3.90;3.50;;;;;;;-0.74;88.46;94758.09;6003218;23;20778;-71
2020/12/31 00:02:42;;;;;;;3.00;2.70;;;;;;;-0.72;88.06;94756.19;6000805;23;20438;-70
2020/12/31 00:05:09;;;;;;;4.20;3.80;;;;;;;-0.81;88.51;94757.03;6002701;23;20208;-70
2020/12/31 00:07:35;;;;;;;3.43;3.13;;;;;;;-0.83;88.74;94764.09;6002416;23;20474;-70
2020/12/31 00:10:03;;;;;;;3.97;3.67;;;;;;;-0.80;88.73;94761.25;6002059;23;20257;-71
2020/12/31 00:12:30;;;;;;;5.17;3.47;;;;;;;-0.79;88.95;94760.28;6001979;23;20686;-70
2020/12/31 00:14:57;;;;;;;3.80;3.50;;;;;;;-0.77;88.63;94758.38;6001915;23;20657;-71
2020/12/31 00:17:25;;;;;;;3.30;3.10;;;;;;;-0.70;88.94;94759.47;6002902;23;20649;-71
2020/12/31 00:19:51;;;;;;;3.03;2.63;;;;;;;-0.69;88.58;94766.28;6001970;23;20210;-71
2020/12/31 00:22:18;;;;;;;2.60;2.50;;;;;;;-0.74;88.20;94764.09;6002558;23;20210;-71
2020/12/31 00:24:45;;;;;;;5.03;3.53;;;;;;;-0.75;88.60;94765.03;6002812;23;20441;-71
2020/12/31 00:27:12;;;;;;;3.13;3.00;;;;;;;-0.77;88.85;94759.19;6003100;23;20210;-71
2020/12/31 00:29:39;;;;;;;3.57;3.27;;;;;;;-0.80;88.87;94758.66;6002214;23;20209;-71
2020/12/31 00:32:06;;;;;;;3.10;2.90;;;;;;;-0.77;88.28;94763.56;6024088;23;20283;-71
2020/12/31 00:34:34;;;;;;;3.00;2.67;;;;;;;-0.80;88.31;94748.28;6024873;23;20261;-70
2020/12/31 00:37:00;;;;;;;2.70;2.53;;;;;;;-0.81;88.79;94752.66;6002522;23;20655;-70
2020/12/31 00:39:28;;;;;;;3.47;3.27;;;;;;;-0.77;88.35;94753.19;6024003;23;20212;-71
2020/12/31 00:41:54;;;;;;;3.73;3.00;;;;;;;-0.74;87.79;94747.72;6001950;23;20651;-71
2020/12/31 00:44:21;;;;;;;2.80;2.60;;;;;;;-0.71;87.04;94752.66;6000871;23;20216;-70
2020/12/31 00:46:48;;;;;;;3.40;3.10;;;;;;;-0.88;87.13;94742.03;6002646;23;20205;-70
2020/12/31 00:49:15;;;;;;;3.03;2.83;;;;;;;-0.98;86.72;94750.75;6002530;23;20544;-71
2020/12/31 00:51:43;;;;;;;3.63;3.33;;;;;;;-1.11;87.38;94751.00;6022873;23;20442;-71
2020/12/31 00:54:11;;;;;;;3.00;2.70;;;;;;;-1.20;87.93;94749.22;6023906;23;20437;-71
2020/12/31 00:56:38;;;;;;;3.00;2.47;;;;;;;-1.12;88.44;94754.53;6023560;23;20228;-70
2020/12/31 00:59:05;;;;;;;3.80;3.20;;;;;;;-1.07;87.93;94754.97;6023555;23;20241;-71
2020/12/31 01:01:32;;;;;;;3.00;2.80;;;;;;;-0.98;87.99;94756.75;6023976;23;20448;-71
2020/12/31 01:03:59;;;;;;;2.53;2.33;;;;;;;-1.00;87.73;94760.44;6001832;23;20213;-70
2020/12/31 01:06:26;;;;;;;4.00;3.60;;;;;;;-1.04;87.46;94757.28;6002667;23;20267;-71
2020/12/31 01:08:54;;;;;;;4.10;3.80;;;;;;;-1.05;87.75;94760.81;6001503;23;20840;-70
2020/12/31 01:11:20;;;;;;;3.47;3.27;;;;;;;-0.99;87.64;94755.13;6023334;23;20797;-70
2020/12/31 01:13:47;;;;;;;3.10;2.90;;;;;;;-1.05;87.87;94753.06;6001753;23;20204;-70
2020/12/31 01:16:15;;;;;;;3.03;2.83;;;;;;;-1.03;87.59;94758.91;6024333;23;20210;-71
2020/12/31 01:18:41;;;;;;;3.77;3.47;;;;;;;-1.09;87.52;94759.47;6024258;23;20449;-71
2020/12/31 01:21:10;;;;;;;3.40;3.20;;;;;;;-1.02;87.70;94755.38;6001410;23;20275;-72
2020/12/31 01:23:37;;;;;;;4.00;3.53;;;;;;;-1.14;87.32;94748.69;6002083;23;20904;-72
2020/12/31 01:26:04;;;;;;;4.00;3.70;;;;;;;-1.19;87.37;94743.09;6002298;23;20781;-72
2020/12/31 01:28:32;;;;;;;4.37;4.07;;;;;;;-1.17;87.66;94746.38;6000831;23;20452;-72
2020/12/31 01:30:59;;;;;;;2.60;2.40;;;;;;;-1.16;87.51;94742.84;6001599;23;20841;-72
2020/12/31 01:33:26;;;;;;;4.07;3.73;;;;;;;-1.13;87.21;94746.91;6001598;23;20436;-73
2020/12/31 01:35:52;;;;;;;4.27;3.97;;;;;;;-1.13;87.62;94746.91;6001492;23;20437;-71
2020/12/31 01:38:19;;;;;;;3.30;3.07;;;;;;;-1.18;86.93;94737.81;6002307;23;20445;-71
2020/12/31 01:40:47;;;;;;;4.00;3.50;;;;;;;-1.23;87.37;94741.72;6001700;23;20440;-71
2020/12/31 01:43:15;;;;;;;5.30;4.80;;;;;;;-1.24;87.30;94732.34;6023915;23;20444;-71
2020/12/31 01:45:41;;;;;;;3.27;2.97;;;;;;;-1.20;87.54;94738.88;6001380;23;20505;-71
2020/12/31 01:48:09;;;;;;;2.20;2.10;;;;;;;-1.23;87.17;94731.38;6002083;23;20436;-71
2020/12/31 01:50:36;;;;;;;3.07;2.83;;;;;;;-1.20;87.24;94725.94;6001783;23;20975;-71
2020/12/31 01:53:03;;;;;;;3.30;3.10;;;;;;;-1.20;87.39;94728.50;6001839;23;20493;-71
2020/12/31 01:55:31;;;;;;;2.77;2.20;;;;;;;-1.21;87.09;94725.09;6002013;23;20256;-71
2020/12/31 01:57:58;;;;;;;4.13;3.83;;;;;;;-1.21;87.30;94724.28;6036808;23;20803;-74
2020/12/31 02:00:26;;;;;;;2.60;2.40;;;;;;;-1.20;87.03;94725.94;6082339;23;20230;-70
2020/12/31 02:02:53;;;;;;;3.53;3.27;;;;;;;-1.22;87.31;94730.44;6087607;23;20450;-70
2020/12/31 02:05:21;;;;;;;3.37;3.17;;;;;;;-1.22;87.11;94738.19;6084463;23;20919;-69
2020/12/31 02:07:48;;;;;;;3.50;3.30;;;;;;;-1.33;87.40;94746.09;6087559;23;20514;-70
2020/12/31 02:10:15;;;;;;;3.20;3.00;;;;;;;-1.35;87.64;94743.63;6085176;23;20490;-69
2020/12/31 02:12:43;;;;;;;3.53;3.33;;;;;;;-1.24;87.16;94740.09;6086954;23;20506;-70
2020/12/31 02:15:14;;;;;;;3.63;3.37;;;;;;;-1.25;87.09;94741.88;6085331;23;20436;-70
2020/12/31 02:17:43;;;;;;;3.03;2.83;;;;;;;-1.27;87.14;94737.78;6087258;23;20506;-70
2020/12/31 02:20:10;;;;;;;4.40;4.10;;;;;;;-1.19;87.13;94743.09;6086207;23;20442;-70
2020/12/31 02:22:38;;;;;;;3.93;3.60;;;;;;;-1.15;86.97;94734.13;6087612;23;20467;-70
2020/12/31 02:25:05;;;;;;;2.40;2.30;;;;;;;-1.18;86.82;94744.75;6085484;23;20913;-70
2020/12/31 02:27:32;;;;;;;2.73;2.53;;;;;;;-1.18;86.81;94747.34;6086735;23;20441;-70
2020/12/31 02:29:59;;;;;;;4.37;3.97;;;;;;;-1.14;86.86;94738.34;6085696;23;20695;-70
2020/12/31 02:32:26;;;;;;;2.73;2.53;;;;;;;-1.09;86.67;94728.41;6087453;23;20434;-70
2020/12/31 02:34:53;;;;;;;3.03;2.83;;;;;;;-1.12;86.44;94736.41;6086124;23;20487;-70
2020/12/31 02:37:20;;;;;;;2.93;2.73;;;;;;;-1.13;86.84;94727.03;6084546;23;20518;-70
2020/12/31 02:39:47;;;;;;;3.93;3.57;;;;;;;-1.04;86.64;94733.97;6087562;23;20855;-70
2020/12/31 02:42:14;;;;;;;3.07;2.80;;;;;;;-1.08;86.24;94730.03;6086402;23;20478;-69
2020/12/31 02:44:41;;;;;;;2.63;2.43;;;;;;;-1.16;86.34;94733.28;6086819;23;20841;-70
2020/12/31 02:47:08;;;;;;;3.17;2.87;;;;;;;-1.15;86.37;94728.94;6084877;23;20764;-70
2020/12/31 02:49:35;;;;;;;2.53;2.33;;;;;;;-1.18;86.31;94718.88;6086632;23;20445;-69
2020/12/31 02:52:02;;;;;;;4.23;3.73;;;;;;;-1.20;86.56;94723.34;6087374;23;20461;-70
2020/12/31 02:54:29;;;;;;;3.97;3.77;;;;;;;-1.17;86.50;94712.72;6086585;23;20452;-70
2020/12/31 02:56:56;;;;;;;3.03;2.73;;;;;;;-1.22;86.33;94709.72;6086706;23;20441;-69
2020/12/31 02:59:23;;;;;;;2.20;2.00;;;;;;;-1.24;86.61;94709.84;6085998;23;20434;-70
2020/12/31 03:01:52;;;;;;;3.83;3.50;;;;;;;-1.29;86.41;94711.19;6086282;23;20913;-69
2020/12/31 03:04:19;;;;;;;5.40;3.67;;;;;;;-1.29;86.87;94712.03;6086857;23;21000;-69
2020/12/31 03:06:46;;;;;;;2.27;2.13;;;;;;;-1.33;86.50;94710.66;6087775;23;20438;-70
2020/12/31 03:09:12;;;;;;;2.60;2.50;;;;;;;-1.34;86.55;94713.41;6085459;23;20210;-70
2020/12/31 03:11:39;;;;;;;2.50;2.40;;;;;;;-1.39;86.56;94707.78;6085258;23;20438;-69
2020/12/31 03:14:07;;;;;;;3.60;3.10;;;;;;;-1.48;86.65;94707.66;6086081;23;20786;-70
2020/12/31 03:16:34;;;;;;;3.70;2.10;;;;;;;-1.67;85.61;94707.63;6087853;23;20758;-70
2020/12/31 03:19:01;;;;;;;3.30;3.10;;;;;;;-1.92;85.31;94705.50;6084525;23;20529;-70
2020/12/31 03:21:29;;;;;;;3.47;3.20;;;;;;;-2.04;85.40;94707.38;6085375;23;20472;-69
2020/12/31 03:23:56;;;;;;;3.10;2.67;;;;;;;-2.25;85.97;94706.63;6084659;23;20469;-70
2020/12/31 03:26:23;;;;;;;2.90;2.37;;;;;;;-2.36;85.88;94716.09;6087204;23;20434;-70
2020/12/31 03:28:50;;;;;;;3.17;2.97;;;;;;;-2.48;86.76;94703.38;6086980;23;20441;-70
2020/12/31 03:31:17;;;;;;;2.60;2.40;;;;;;;-2.50;87.29;94707.84;6084927;23;20445;-70
2020/12/31 03:33:44;;;;;;;2.40;2.27;;;;;;;-2.54;87.32;94702.13;6086866;23;20430;-70
2020/12/31 03:36:11;;;;;;;2.60;2.40;;;;;;;-2.38;88.31;94701.66;6086453;23;20485;-69
2020/12/31 03:38:38;;;;;;;3.47;3.10;;;;;;;-2.55;87.98;94704.84;6083054;23;20446;-70
2020/12/31 03:41:05;;;;;;;2.80;2.60;;;;;;;-2.68;87.71;94697.28;6087618;23;20441;-70
2020/12/31 03:43:32;;;;;;;2.20;1.97;;;;;;;-2.77;87.61;94696.28;6087552;23;20437;-70
2020/12/31 03:45:59;;;;;;;2.90;2.70;;;;;;;-2.87;87.65;94690.25;6088918;23;20492;-70
2020/12/31 03:48:27;;;;;;;3.03;2.83;;;;;;;-2.94;87.81;94683.94;6088521;23;20509;-70
2020/12/31 03:50:53;;;;;;;3.87;3.50;;;;;;;-2.98;88.22;94672.25;6086634;23;20425;-70
2020/12/31 03:53:20;;;;;;;3.53;3.00;;;;;;;-3.12;88.56;94669.97;6089635;23;20946;-70
2020/12/31 03:55:47;;;;;;;3.40;3.10;;;;;;;-3.06;88.35;94665.13;6088616;23;20434;-69
2020/12/31 03:58:14;;;;;;;3.23;3.03;;;;;;;-3.28;88.80;94673.81;6088350;23;20517;-69
2020/12/31 04:00:41;;;;;;;3.57;3.37;;;;;;;-3.35;89.15;94670.09;6087726;23;20429;-70
2020/12/31 04:03:08;;;;;;;3.50;3.20;;;;;;;-3.36;89.76;94663.28;6087454;23;20468;-70
2020/12/31 04:05:35;;;;;;;3.77;3.00;;;;;;;-3.34;89.67;94661.41;6088365;23;21019;-70
2020/12/31 04:08:03;;;;;;;4.00;3.70;;;;;;;-3.24;89.64;94666.63;6086005;23;20534;-69
2020/12/31 04:10:29;;;;;;;3.53;3.23;;;;;;;-3.24;90.33;94657.13;6082610;23;20668;-70
2020/12/31 04:12:56;;;;;;;2.77;2.57;;;;;;;-3.16;90.32;94654.75;6085309;23;20449;-69
2020/12/31 04:15:23;;;;;;;4.37;3.73;;;;;;;-3.01;90.70;94650.09;6088048;23;20504;-69
2020/12/31 04:17:50;;;;;;;4.33;3.93;;;;;;;-2.93;91.24;94654.59;6088484;23;20445;-69
2020/12/31 04:20:17;;;;;;;4.03;3.43;;;;;;;-2.81;91.30;94651.03;6085665;23;20438;-70
2020/12/31 04:22:44;;;;;;;3.67;3.37;;;;;;;-2.74;90.91;94640.97;6087212;23;20481;-70
2020/12/31 04:25:11;;;;;;;5.40;3.83;;;;;;;-2.67;91.21;94642.94;6086478;23;20524;-69
2020/12/31 04:27:38;;;;;;;4.73;3.93;;;;;;;-2.63;91.38;94641.75;6084794;23;20441;-69
2020/12/31 04:30:05;;;;;;;5.37;3.73;;;;;;;-2.58;91.21;94629.25;6086044;23;20441;-70
2020/12/31 04:32:32;;;;;;;3.47;3.17;;;;;;;-2.58;91.07;94629.25;6085171;23;20504;-69
2020/12/31 04:34:58;;;;;;;3.67;3.33;;;;;;;-2.61;90.72;94639.84;6087125;23;20442;-70
2020/12/31 04:37:25;;;;;;;3.57;3.37;;;;;;;-2.64;90.77;94629.78;6087130;23;20826;-69
2020/12/31 04:39:53;;;;;;;4.43;4.13;;;;;;;-2.61;90.36;94639.03;6088683;23;20670;-70
2020/12/31 04:42:20;;;;;;;3.80;3.50;;;;;;;-2.61;90.25;94634.69;6086461;23;20434;-69
2020/12/31 04:44:47;;;;;;;3.43;3.23;;;;;;;-2.64;90.12;94629.78;6085949;23;20434;-69
2020/12/31 04:47:19;;;;;;;4.33;3.97;;;;;;;-2.65;90.08;94630.72;6088220;23;20773;-69
2020/12/31 04:49:50;;;;;;;3.03;2.83;;;;;;;-2.68;89.71;94633.53;6087153;23;20437;-70
2020/12/31 04:52:17;;;;;;;5.40;4.90;;;;;;;-2.76;89.56;94624.81;6086697;23;20437;-69
2020/12/31 04:54:44;;;;;;;4.63;3.73;;;;;;;-2.81;90.13;94632.94;6088039;23;20497;-70
2020/12/31 04:57:12;;;;;;;3.30;3.10;;;;;;;-2.90;90.01;94624.22;6087416;23;20525;-69
2020/12/31 04:59:39;;;;;;;4.00;3.70;;;;;;;-2.97;89.53;94625.66;6085312;23;20525;-70
2020/12/31 05:02:08;;;;;;;3.47;3.20;;;;;;;-3.11;88.98;94622.56;6088000;23;20489;-69
2020/12/31 05:04:36;;;;;;;3.10;2.90;;;;;;;-3.21;89.29;94628.50;6087651;23;20438;-70
2020/12/31 05:07:03;;;;;;;3.30;3.00;;;;;;;-3.31;88.88;94629.38;6087687;23;20505;-69
2020/12/31 05:09:30;;;;;;;3.37;3.07;;;;;;;-3.36;88.95;94636.69;6087473;23;20988;-69
2020/12/31 05:11:57;;;;;;;3.93;3.63;;;;;;;-3.40;88.49;94641.25;6086928;23;20464;-69
2020/12/31 05:14:29;;;;;;;4.27;3.77;;;;;;;-3.48;88.24;94634.13;6087554;23;20477;-69
2020/12/31 05:17:10;;;;;;;4.10;3.80;;;;;;;-3.50;88.98;94635.22;6087906;23;20433;-69
2020/12/31 05:19:37;;;;;;;3.87;3.57;;;;;;;-3.41;88.80;94639.63;6087162;23;20533;-70
2020/12/31 05:22:11;;;;;;;4.67;4.07;;;;;;;-3.43;89.39;94651.81;6087452;23;20470;-70
2020/12/31 05:24:39;;;;;;;3.57;3.37;;;;;;;-3.50;88.69;94650.69;6087629;23;20457;-70
2020/12/31 05:27:19;;;;;;;3.83;3.53;;;;;;;-3.58;88.93;94647.91;6082937;23;20524;-69
2020/12/31 05:30:00;;;;;;;3.93;3.63;;;;;;;-3.63;89.75;94640.53;6087156;23;20493;-69
2020/12/31 05:32:29;;;;;;;4.23;3.90;;;;;;;-3.67;89.48;94646.88;6087401;23;20936;-70
2020/12/31 05:34:57;;;;;;;3.53;3.23;;;;;;;-3.77;89.84;94649.38;6086955;23;20434;-69
2020/12/31 05:37:27;;;;;;;4.10;3.80;;;;;;;-3.80;89.75;94649.63;6086463;23;20501;-69
2020/12/31 05:39:59;;;;;;;3.67;3.00;;;;;;;-3.85;90.41;94638.84;6087256;23;20434;-70
2020/12/31 05:42:27;;;;;;;4.67;4.37;;;;;;;-3.82;89.86;94641.19;6085428;23;20821;-70
2020/12/31 05:45:09;;;;;;;3.10;2.90;;;;;;;-3.85;90.23;94646.56;6086713;23;20441;-69
2020/12/31 05:47:43;;;;;;;5.43;2.47;;;;;;;-3.89;90.69;94649.53;6087382;23;20442;-69
2020/12/31 05:50:16;;;;;;;4.03;3.73;;;;;;;-3.96;89.91;94659.50;6086460;23;20444;-70
2020/12/31 05:52:42;;;;;;;3.97;3.67;;;;;;;-4.00;90.26;94647.81;6085850;23;20438;-70
2020/12/31 05:55:10;;;;;;;4.20;3.90;;;;;;;-4.04;90.37;94643.81;6087005;23;20441;-70
2020/12/31 05:57:45;;;;;;;4.00;3.70;;;;;;;-4.05;90.06;94649.91;6087630;23;20508;-69
2020/12/31 06:00:15;;;;;;;4.63;3.77;;;;;;;-4.05;90.46;94645.56;6085070;23;20437;-69
2020/12/31 06:02:44;;;;;;;5.10;4.63;;;;;;;-4.12;90.83;94643.59;6087430;23;20433;-70
2020/12/31 06:05:13;;;;;;;3.57;3.30;;;;;;;-4.11;90.38;94650.41;6084676;23;20995;-70
2020/12/31 06:07:44;;;;;;;3.77;3.47;;;;;;;-4.22;91.40;94660.72;6086988;23;20509;-69
2020/12/31 06:10:14;;;;;;;3.47;3.17;;;;;;;-4.27;91.68;94666.22;6086319;23;20515;-69
2020/12/31 06:12:51;;;;;;;5.30;4.90;;;;;;;-4.24;91.25;94671.13;6086152;23;20837;-70
2020/12/31 06:15:21;;;;;;;3.13;2.93;;;;;;;-4.27;91.38;94668.00;6085381;23;20771;-70
2020/12/31 06:17:49;;;;;;;3.57;3.27;;;;;;;-4.32;91.64;94676.88;6086975;23;20445;-69
2020/12/31 06:20:17;;;;;;;4.80;4.50;;;;;;;-4.37;91.74;94676.41;6086408;23;20952;-69
2020/12/31 06:23:01;;;;;;;5.17;4.67;;;;;;;-4.46;91.83;94677.13;6086635;23;20446;-69
2020/12/31 06:25:42;;;;;;;6.37;4.07;;;;;;;-4.46;91.98;94673.75;6086556;23;20425;-70
2020/12/31 06:28:12;;;;;;;4.63;4.17;;;;;;;-4.46;91.94;94669.41;6085638;23;20453;-70
2020/12/31 06:30:41;;;;;;;4.03;3.60;;;;;;;-4.36;91.98;94675.47;6086988;23;20441;-69
2020/12/31 06:33:14;;;;;;;5.47;4.97;;;;;;;-4.28;91.69;94682.63;6087730;23;20441;-69
2020/12/31 06:35:42;;;;;;;4.67;4.27;;;;;;;-4.33;92.45;94682.97;6086383;23;20444;-68
2020/12/31 06:38:10;;;;;;;5.40;4.90;;;;;;;-4.46;92.29;94686.59;6087316;23;20440;-70
2020/12/31 06:40:37;;;;;;;5.87;5.30;;;;;;;-4.47;91.97;94680.66;6085872;23;20449;-69
2020/12/31 06:43:06;;;;;;;5.03;4.63;;;;;;;-4.39;92.17;94677.47;6087161;23;20441;-70
2020/12/31 06:45:42;;;;;;;6.13;5.47;;;;;;;-4.41;91.64;94674.19;6086265;23;20471;-68
2020/12/31 06:48:34;;;;;;;5.93;5.20;;;;;;;-4.46;91.55;94671.97;6087635;23;20477;-68
2020/12/31 06:51:03;;;;;;;5.33;4.90;;;;;;;-4.47;91.60;94670.34;6086230;23;20434;-67
2020/12/31 06:53:32;;;;;;;4.97;4.57;;;;;;;-4.38;91.93;94669.63;6085961;23;20445;-68
2020/12/31 06:56:01;;;;;;;5.43;5.03;;;;;;;-4.23;91.95;94666.81;6085619;23;20461;-67
2020/12/31 06:58:27;;;;;;;4.50;4.10;;;;;;;-4.12;92.16;94669.34;6085533;23;20504;-67
2020/12/31 07:00:56;;;;;;;6.47;5.93;;;;;;;-3.90;91.47;94674.47;6086837;23;20438;-68
2020/12/31 07:03:53;;;;;;;6.17;5.67;;;;;;;-3.86;90.49;94675.88;6085983;23;20434;-68
2020/12/31 07:06:40;;;;;;;5.23;4.23;;;;;;;-3.85;89.77;94677.50;5997157;23;20492;-67
2020/12/31 07:09:29;;;;;;;4.10;3.80;;;;;;;-3.90;89.56;94677.06;6078407;23;20438;-68
2020/12/31 07:12:02;;;;;;;6.50;5.90;;;;;;;-3.95;89.93;94666.28;6084612;23;20507;-67
2020/12/31 07:14:30;;;;;;;4.97;4.17;;;;;;;-3.93;90.16;94672.16;6084176;23;20485;-67
2020/12/31 07:17:03;;;;;;;3.87;3.50;;;;;;;-3.79;90.01;94661.56;6087029;23;20858;-67
2020/12/31 07:19:34;;;;;;;4.73;4.27;;;;;;;-3.66;88.88;94656.22;6087059;23;20738;-68
2020/12/31 07:22:07;;;;;;;5.50;4.53;;;;;;;-3.69;88.70;94658.25;6089166;23;20438;-68
2020/12/31 07:24:34;;;;;;;6.97;4.70;;;;;;;-3.77;89.03;94649.38;6088959;23;20478;-68
2020/12/31 07:27:02;;;;;;;4.23;3.83;;;;;;;-3.81;88.80;94654.91;6089413;23;21163;-68
2020/12/31 07:29:34;;;;;;;4.30;3.90;;;;;;;-3.83;89.71;94655.03;6089020;23;20445;-67
2020/12/31 07:32:02;;;;;;;5.23;4.83;;;;;;;-3.82;89.09;94651.50;6088539;23;20442;-67
2020/12/31 07:34:31;;;;;;;5.57;5.07;;;;;;;-3.84;89.22;94648.25;6089145;23;20440;-67
2020/12/31 07:37:00;;;;;;;3.53;3.23;;;;;;;-3.86;89.54;94659.59;6089602;23;20912;-68
2020/12/31 07:39:28;;;;;;;4.37;4.07;;;;;;;-3.88;88.75;94664.06;6088563;23;20430;-68
2020/12/31 07:42:12;;;;;;;4.33;3.93;;;;;;;-4.00;88.63;94663.25;6072819;23;20920;-68
2020/12/31 07:44:53;;;;;;;4.23;3.83;;;;;;;-3.94;88.69;94659.38;6087251;23;20444;-68
2020/12/31 07:47:22;;;;;;;4.67;4.20;;;;;;;-3.91;88.57;94651.41;6088460;23;21164;-68
2020/12/31 07:49:50;;;;;;;6.97;5.33;;;;;;;-3.84;88.26;94648.25;6087200;23;20954;-67
2020/12/31 07:52:18;;;;;;;5.07;4.57;;;;;;;-3.70;88.44;94648.88;6088982;23;20441;-68
2020/12/31 07:54:45;;;;;;;6.53;5.10;;;;;;;-3.58;88.34;94647.91;6086944;23;20760;-68
2020/12/31 07:57:13;;;;;;;3.50;3.20;;;;;;;-3.54;87.79;94639.00;6080487;23;20509;-75
2020/12/31 07:59:44;;;;;;;4.40;4.00;;;;;;;-3.36;87.50;94647.81;6078289;23;20805;-75
2020/12/31 08:02:15;;;;;;;4.50;4.20;;;;;;;-3.28;86.83;94645.44;6081082;23;20445;-74
2020/12/31 08:04:43;;;;;;;5.50;4.97;;;;;;;-3.16;86.09;94649.59;6079729;23;20944;-75
2020/12/31 08:07:14;;;;;;;4.27;3.93;;;;;;;-3.06;85.75;94643.66;6082047;23;20821;-75
2020/12/31 08:09:42;;;;;;;3.93;3.30;;;;;;;-2.93;86.32;94644.28;6078924;23;20464;-75
2020/12/31 08:12:10;;;;;;;5.60;3.97;;;;;;;-2.78;86.02;94637.03;6080854;23;20461;-75
2020/12/31 08:14:42;;;;;;;5.10;4.70;;;;;;;-2.62;86.05;94627.88;6079179;23;20434;-75
2020/12/31 08:17:09;;;;;;;6.10;5.60;;;;;;;-2.43;85.92;94621.97;6080194;23;20426;-74
2020/12/31 08:19:37;;;;;;;5.60;4.90;;;;;;;-2.25;85.95;94614.41;6080737;23;20960;-75
2020/12/31 08:22:19;;;;;;;5.93;5.30;;;;;;;-2.04;85.80;94628.06;6077528;23;20458;-75
2020/12/31 08:24:49;;;;;;;3.90;3.50;;;;;;;-1.84;85.42;94622.91;6079355;23;20441;-75
2020/12/31 08:27:18;;;;;;;5.27;4.80;;;;;;;-1.69;84.36;94625.94;6101590;23;20452;-75
2020/12/31 08:29:46;;;;;;;11.47;4.87;;;;;;;-1.56;83.60;94627.28;6076215;23;20449;-75
2020/12/31 08:32:22;;;;;;;4.63;4.23;;;;;;;-1.45;82.58;94629.78;6077146;23;20489;-75
2020/12/31 08:34:54;;;;;;;4.70;4.27;;;;;;;-1.34;82.09;94625.41;6079240;23;20437;-75
2020/12/31 08:37:23;;;;;;;4.23;3.10;;;;;;;-1.26;80.83;94622.97;6081960;23;20449;-75
2020/12/31 08:39:52;;;;;;;3.83;3.57;;;;;;;-1.16;80.06;94628.94;6078272;23;20429;-75
2020/12/31 08:42:21;;;;;;;4.20;3.53;;;;;;;-1.20;80.71;94627.56;6078545;23;20442;-75
2020/12/31 08:44:56;;;;;;;3.87;3.47;;;;;;;-0.88;80.63;94630.66;6079016;23;20445;-72
2020/12/31 08:47:25;;;;;;;4.27;3.93;;;;;;;0.21;77.60;94616.16;6080821;23;20441;-72
2020/12/31 08:49:53;;;;;;;4.90;4.53;;;;;;;1.77;72.86;94611.13;6076410;23;20822;-74
2020/12/31 08:52:24;;;;;;;6.17;4.47;;;;;;;3.20;67.63;94612.69;6080925;23;20438;-72
2020/12/31 08:55:07;;;;;;;3.63;3.33;;;;;;;4.43;61.99;94611.31;6080412;23;20989;-72
2020/12/31 08:57:34;;;;;;;3.33;3.03;;;;;;;5.39;59.01;94611.59;6080559;23;20443;-72
2020/12/31 09:00:03;;;;;;;4.23;3.33;;;;;;;6.06;55.18;94596.88;6079482;23;20203;-72
2020/12/31 09:02:30;;;;;;;3.27;2.90;;;;;;;6.63;53.39;94599.53;6079455;23;20205;-72
2020/12/31 09:05:10;;;;;;;4.50;4.20;;;;;;;7.47;50.58;94594.44;6078969;23;20213;-73
2020/12/31 09:07:39;;;;;;;3.77;3.47;;;;;;;8.56;47.66;94592.03;6081615;23;20251;-73
2020/12/31 09:10:18;;;;;;;3.77;3.43;;;;;;;9.33;44.50;94594.22;6077890;23;20649;-73
2020/12/31 09:12:46;;;;;;;3.10;2.90;;;;;;;9.73;43.91;94593.38;6080869;23;20197;-72
2020/12/31 09:15:18;;;;;;;3.20;2.90;;;;;;;10.46;41.66;94586.13;6077373;23;20284;-73
2020/12/31 09:17:45;;;;;;;2.70;2.23;;;;;;;10.72;40.57;94593.13;6078533;23;20198;-73
2020/12/31 09:20:28;;;;;;;4.23;3.00;;;;;;;10.78;40.17;94586.97;6077120;23;20202;-73
2020/12/31 09:23:08;;;;;;;2.80;2.60;;;;;;;10.96;39.82;94579.16;6071874;23;20209;-73
2020/12/31 09:25:48;;;;;;;2.87;2.67;;;;;;;11.30;39.64;94577.13;6080283;23;20639;-73
2020/12/31 09:28:16;;;;;;;3.77;3.47;;;;;;;10.81;40.05;94576.03;6043509;23;20202;-73
2020/12/31 09:30:47;;;;;;;3.27;3.00;;;;;;;9.27;42.31;94579.22;6070632;23;20688;-72
2020/12/31 09:33:17;;;;;;;3.20;3.00;;;;;;;8.15;45.37;94579.72;6071621;23;20208;-73
2020/12/31 09:35:45;;;;;;;3.00;2.80;;;;;;;8.22;46.26;94570.03;6078653;23;20573;-72
2020/12/31 09:38:15;;;;;;;5.47;4.97;;;;;;;8.35;46.39;94571.16;6080240;23;20204;-72
2020/12/31 09:40:41;;;;;;;3.03;2.83;;;;;;;8.47;46.77;94557.22;6078913;23;20681;-73
2020/12/31 09:43:09;;;;;;;3.50;3.30;;;;;;;8.65;46.73;94559.28;6080767;23;20211;-72
2020/12/31 09:45:38;;;;;;;4.23;3.87;;;;;;;9.23;45.74;94556.94;6078109;23;20266;-73
2020/12/31 09:48:06;;;;;;;3.20;3.00;;;;;;;10.15;43.18;94553.38;6079907;23;20259;-72
2020/12/31 09:50:33;;;;;;;6.93;4.20;;;;;;;10.44;41.93;94549.41;6079788;23;20213;-73
2020/12/31 09:53:01;;;;;;;3.67;3.37;;;;;;;10.97;41.51;94548.28;6080213;23;20267;-73
2020/12/31 09:55:43;;;;;;;3.13;2.93;;;;;;;11.85;39.81;94537.66;6080013;23;20284;-73
2020/12/31 09:58:10;;;;;;;4.17;3.87;;;;;;;12.72;39.02;94535.63;6080576;23;20206;-73
2020/12/31 10:00:37;;;;;;;4.63;4.20;;;;;;;13.87;36.87;94525.44;6080085;23;20217;-73
2020/12/31 10:03:04;;;;;;;3.40;3.10;;;;;;;14.23;35.63;94526.22;6079481;23;20203;-73
2020/12/31 10:05:31;;;;;;;2.67;2.47;;;;;;;14.92;34.58;94524.41;6078715;23;20203;-74
2020/12/31 10:07:57;;;;;;;4.30;3.33;;;;;;;15.38;33.26;94516.41;6081584;23;20260;-73
2020/12/31 10:10:25;;;;;;;7.87;6.20;;;;;;;15.98;31.32;94515.72;6079845;23;20749;-73
2020/12/31 10:12:53;;;;;;;4.07;3.70;;;;;;;16.14;31.38;94507.72;6082100;23;20241;-73
2020/12/31 10:15:20;;;;;;;2.57;2.37;;;;;;;16.77;30.98;94502.91;6080477;23;20220;-74
2020/12/31 10:17:47;;;;;;;2.73;2.47;;;;;;;16.83;30.68;94491.25;6078854;23;20206;-74
2020/12/31 10:20:14;;;;;;;4.00;3.67;;;;;;;17.05;28.79;94488.50;6077353;23;20205;-73
2020/12/31 10:22:40;;;;;;;2.83;2.63;;;;;;;17.05;27.74;94486.66;6080306;23;20210;-73
2020/12/31 10:25:08;;;;;;;2.60;2.40;;;;;;;15.65;29.30;94488.16;6080598;23;20201;-74
2020/12/31 10:27:35;;;;;;;2.67;2.47;;;;;;;13.23;32.78;94489.25;6080133;23;20212;-73
2020/12/31 10:30:03;;;;;;;2.27;2.13;;;;;;;11.34;35.99;94496.44;6078415;23;20241;-73
2020/12/31 10:32:30;;;;;;;1.93;1.83;;;;;;;9.70;39.74;94489.25;6079760;23;20284;-73
2020/12/31 10:34:57;;;;;;;3.33;3.13;;;;;;;8.33;43.54;94492.47;6079289;23;20224;-73
2020/12/31 10:37:28;;;;;;;2.10;2.00;;;;;;;7.52;45.78;94481.81;6103064;23;20280;-73
2020/12/31 10:39:54;;;;;;;3.17;2.90;;;;;;;7.94;45.60;94482.59;6099842;23;20197;-75
2020/12/31 10:42:21;;;;;;;3.70;3.47;;;;;;;9.15;43.57;94470.31;6079207;23;20261;-73
2020/12/31 10:44:48;;;;;;;2.43;2.33;;;;;;;10.99;39.96;94467.88;6077988;23;20267;-73
2020/12/31 10:47:16;;;;;;;2.07;1.97;;;;;;;12.40;36.12;94455.63;6079917;23;20202;-72
2020/12/31 10:49:43;;;;;;;3.17;2.97;;;;;;;13.46;34.64;94456.66;6078071;23;20208;-72
2020/12/31 10:52:10;;;;;;;2.70;2.50;;;;;;;14.13;32.88;94451.72;6077948;23;20210;-72
2020/12/31 10:54:37;;;;;;;2.90;2.70;;;;;;;14.00;32.40;94452.81;6075699;23;20442;-72
2020/12/31 10:57:04;;;;;;;3.50;2.47;;;;;;;14.32;32.31;94447.03;6079699;23;20209;-72
2020/12/31 10:59:31;;;;;;;3.07;2.77;;;;;;;14.59;31.25;94439.34;6079033;23;20209;-73
2020/12/31 11:01:58;;;;;;;1.53;1.43;;;;;;;15.14;30.29;94430.72;6073075;23;20599;-73
2020/12/31 11:04:26;;;;;;;1.80;1.67;;;;;;;14.60;30.55;94433.00;6078804;23;20201;-72
2020/12/31 11:06:53;;;;;;;2.17;1.90;;;;;;;14.84;30.68;94433.69;6076062;23;20280;-72
2020/12/31 11:09:19;;;;;;;1.57;1.47;;;;;;;14.68;31.60;94429.94;6079960;23;20211;-73
2020/12/31 11:11:46;;;;;;;2.53;2.33;;;;;;;14.76;30.92;94424.25;6078207;23;20201;-72
2020/12/31 11:14:13;;;;;;;4.70;2.63;;;;;;;15.17;30.07;94423.03;6073836;23;20214;-72
2020/12/31 11:16:40;;;;;;;1.43;1.33;;;;;;;14.91;30.51;94413.88;6079263;23;20214;-72
2020/12/31 11:19:07;;;;;;;1.40;1.30;;;;;;;13.90;31.22;94410.97;6078546;23;20523;-72
2020/12/31 11:21:34;;;;;;;2.37;1.40;;;;;;;12.59;33.70;94419.34;6075511;23;20201;-72
2020/12/31 11:24:01;;;;;;;3.63;1.67;;;;;;;11.99;35.47;94411.44;6076792;23;20202;-73
2020/12/31 11:26:28;;;;;;;1.70;1.60;;;;;;;11.52;35.38;94417.22;6078691;23;20856;-72
2020/12/31 11:28:55;;;;;;;1.23;1.20;;;;;;;10.83;37.98;94415.63;6070725;23;20205;-72
2020/12/31 11:31:23;;;;;;;1.10;1.00;;;;;;;10.76;37.90;94405.13;6074626;23;20212;-72
2020/12/31 11:33:50;;;;;;;1.00;0.97;;;;;;;11.54;37.02;94395.88;6078984;23;20213;-72
2020/12/31 11:36:20;;;;;;;0.97;0.90;;;;;;;12.70;35.09;94384.94;6077508;23;20602;-72
2020/12/31 11:38:48;;;;;;;0.87;0.87;;;;;;;14.04;33.14;94378.84;6078169;23;20216;-72
2020/12/31 11:41:15;;;;;;;1.40;1.33;;;;;;;14.43;31.96;94372.66;6078924;23;20213;-72